Time;durP1;ratioP1;P1;durP2;ratioP2;P2;SDS_P1;SDS_P2;PMS_P1;PMS_P2;Temp;Humidity;BMP_temperature;BMP_pressure;BME280_temperature;BME280_humidity;BME280_pressure;Samples;Min_cycle;Max_cycle;Signal;HPM_P1;HPM_P2
2021/12/23 00:01:33;;;;;;;;;19.00;13.50;;;;;19.63;35.76;101314.94;5000130;28;51169;-58
2021/12/23 00:03:59;;;;;;;;;17.75;14.00;;;;;19.62;36.06;101307.75;5012320;28;51102;-57
2021/12/23 00:06:24;;;;;;;;;15.25;14.75;;;;;19.58;36.26;101301.81;5013972;28;52563;-57
2021/12/23 00:08:50;;;;;;;;;17.00;14.25;;;;;19.56;35.95;101307.50;5014592;28;51420;-56
2021/12/23 00:11:15;;;;;;;;;19.75;15.50;;;;;19.55;35.96;101293.94;5017017;28;51053;-55
2021/12/23 00:13:49;;;;;;;;;16.50;16.25;;;;;19.52;35.56;101299.88;5000565;28;50957;-56
2021/12/23 00:16:18;;;;;;;;;15.00;15.00;;;;;19.50;35.99;101299.22;5014027;28;51988;-57
2021/12/23 00:18:51;;;;;;;;;14.00;12.50;;;;;19.47;35.71;101289.47;5006285;28;51110;-56
2021/12/23 00:24:01;;;;;;;;;19.50;16.50;;;;;19.44;35.87;101275.31;5014528;28;50992;-55
2021/12/23 00:26:28;;;;;;;;;13.50;11.75;;;;;19.40;35.84;101263.91;5006123;28;51707;-56
2021/12/23 00:28:54;;;;;;;;;19.25;16.00;;;;;19.39;35.81;101270.44;5013921;28;51441;-57
2021/12/23 00:31:20;;;;;;;;;19.25;17.50;;;;;19.37;35.66;101269.78;5007254;28;51143;-56
2021/12/23 00:33:45;;;;;;;;;17.50;15.75;;;;;19.35;35.75;101271.88;4995993;28;51168;-58
2021/12/23 00:36:12;;;;;;;;;18.50;14.50;;;;;19.35;35.58;101273.78;4997190;28;51794;-57
2021/12/23 00:38:44;;;;;;;;;16.00;15.00;;;;;19.33;35.90;101265.75;4997983;28;50928;-57
2021/12/23 00:41:10;;;;;;;;;19.25;13.00;;;;;19.31;35.63;101259.63;4999237;28;51193;-54
2021/12/23 00:43:36;;;;;;;;;15.50;14.75;;;;;19.29;35.73;101256.25;4998425;28;51434;-55
2021/12/23 00:46:05;;;;;;;;;20.50;18.00;;;;;19.27;35.83;101253.66;4998266;28;51956;-56
2021/12/23 00:48:31;;;;;;;;;21.50;17.75;;;;;19.25;35.92;101257.69;4998400;28;51284;-56
2021/12/23 00:50:57;;;;;;;;;15.75;12.50;;;;;19.23;35.99;101248.81;4998745;28;51010;-56
2021/12/23 00:53:23;;;;;;;;;18.50;17.50;;;;;19.22;35.62;101249.84;4998760;28;51208;-55
2021/12/23 00:55:55;;;;;;;;;19.25;15.00;;;;;19.18;35.89;101238.44;5001172;28;51121;-56
2021/12/23 00:58:22;;;;;;;;;18.75;14.25;;;;;19.19;35.91;101239.28;5015481;28;51117;-57
2021/12/23 01:00:49;;;;;;;;;15.50;13.75;;;;;19.16;35.45;101235.03;5015754;28;51101;-57
2021/12/23 01:03:14;;;;;;;;;17.25;17.00;;;;;19.15;35.84;101246.22;5014810;28;51379;-56
2021/12/23 01:05:41;;;;;;;;;13.00;13.00;;;;;19.13;36.08;101243.69;4997732;28;51702;-53
2021/12/23 01:08:06;;;;;;;;;17.00;17.00;;;;;19.12;36.08;101235.66;4997754;28;51292;-56
2021/12/23 01:10:32;;;;;;;;;17.25;15.50;;;;;19.11;35.74;101222.97;5018177;28;51428;-55
2021/12/23 01:13:01;;;;;;;;;19.00;14.75;;;;;19.10;35.82;101232.28;5003438;28;51363;-56
2021/12/23 01:18:12;;;;;;;;;22.50;15.25;;;;;19.06;35.82;101237.31;5009159;28;50897;-56
2021/12/23 01:20:45;;;;;;;;;9.50;8.50;;;;;19.04;35.95;101229.28;5016009;28;51062;-57
2021/12/23 01:23:10;;;;;;;;;15.00;12.50;;;;;19.02;35.89;101231.38;5013219;28;51119;-55
2021/12/23 01:25:40;;;;;;;;;18.00;15.00;;;;;19.01;35.90;101239.81;5016082;28;52959;-57
2021/12/23 01:28:08;;;;;;;;;15.25;14.50;;;;;19.00;35.88;101229.91;5012939;28;51062;-56
2021/12/23 01:30:37;;;;;;;;;17.00;15.50;;;;;19.00;35.78;101227.16;5000458;28;51140;-57
2021/12/23 01:33:04;;;;;;;;;17.25;16.75;;;;;18.97;35.70;101222.91;5005501;28;51374;-56
2021/12/23 01:35:29;;;;;;;;;17.00;13.75;;;;;18.97;35.72;101222.06;5013824;28;51083;-57
2021/12/23 01:37:54;;;;;;;;;15.00;13.50;;;;;18.94;35.69;101217.81;5005371;28;51134;-56
2021/12/23 01:40:24;;;;;;;;;18.25;15.00;;;;;18.94;35.71;101206.00;4998546;28;51073;-55
2021/12/23 01:42:50;;;;;;;;;14.00;13.00;;;;;18.93;35.74;101218.88;4997525;28;51287;-56
2021/12/23 01:45:22;;;;;;;;;13.50;13.50;;;;;18.91;35.76;101220.97;5005350;28;53078;-56
2021/12/23 01:47:47;;;;;;;;;17.75;17.00;;;;;18.90;35.91;101219.28;5000829;28;51189;-55
2021/12/23 01:50:15;;;;;;;;;20.50;16.50;;;;;18.89;35.80;101216.75;5003232;28;51096;-55
2021/12/23 01:52:42;;;;;;;;;14.00;14.00;;;;;18.88;35.91;101209.56;5015972;28;50970;-56
2021/12/23 01:55:09;;;;;;;;;24.75;18.00;;;;;18.86;35.69;101204.28;4997286;28;51086;-54
2021/12/23 01:57:36;;;;;;;;;18.25;13.50;;;;;18.85;35.81;101196.22;4996858;28;51399;-54
2021/12/23 02:00:07;;;;;;;;;11.50;11.25;;;;;18.83;35.82;101193.69;4996984;28;51019;-56
2021/12/23 02:02:33;;;;;;;;;17.75;14.50;;;;;18.83;35.77;101195.59;4997231;28;50991;-55
2021/12/23 02:04:58;;;;;;;;;16.50;15.25;;;;;18.81;35.73;101195.78;5006174;28;51806;-58
2021/12/23 02:07:23;;;;;;;;;18.00;15.00;;;;;18.81;35.78;101200.44;5016298;28;51069;-55
2021/12/23 02:09:49;;;;;;;;;19.00;13.50;;;;;18.79;36.08;101192.41;5014919;28;51474;-55
2021/12/23 02:12:15;;;;;;;;;17.25;15.50;;;;;18.78;35.89;101178.91;5007467;28;51128;-56
2021/12/23 02:14:40;;;;;;;;;14.50;13.25;;;;;18.77;35.78;101182.69;4997282;28;51919;-56
2021/12/23 02:17:06;;;;;;;;;16.75;14.50;;;;;18.75;35.97;101189.19;5012173;28;51205;-57
2021/12/23 02:19:32;;;;;;;;;13.00;12.25;;;;;18.76;36.01;101192.81;5003679;28;50940;-57
2021/12/23 02:21:58;;;;;;;;;18.50;17.00;;;;;18.75;36.17;101196.59;5018097;28;51089;-57
2021/12/23 02:24:24;;;;;;;;;16.25;14.75;;;;;18.74;35.84;101192.16;4996242;28;51051;-56
2021/12/23 02:26:50;;;;;;;;;17.00;15.00;;;;;18.73;36.05;101188.56;5004764;28;50905;-56
2021/12/23 02:29:15;;;;;;;;;17.75;14.75;;;;;18.71;36.04;101187.91;4996502;28;51501;-56
2021/12/23 02:31:45;;;;;;;;;19.25;15.75;;;;;18.71;36.29;101179.69;5004683;28;51291;-55
2021/12/23 02:34:10;;;;;;;;;16.25;13.50;;;;;18.70;36.21;101179.91;5008027;28;51117;-57
2021/12/23 02:36:36;;;;;;;;;17.00;16.75;;;;;18.70;35.92;101171.66;4996477;28;51000;-56
2021/12/23 02:39:01;;;;;;;;;16.25;13.75;;;;;18.69;36.19;101172.72;5001411;28;51091;-57
2021/12/23 02:41:27;;;;;;;;;19.50;15.50;;;;;18.68;36.11;101173.78;5008026;28;51285;-58
2021/12/23 02:43:52;;;;;;;;;14.50;13.00;;;;;18.67;35.88;101167.44;5014899;28;51785;-58
2021/12/23 02:46:19;;;;;;;;;17.50;14.00;;;;;18.64;35.97;101170.56;5015764;28;51197;-54
2021/12/23 02:48:45;;;;;;;;;17.50;15.25;;;;;18.65;35.88;101169.53;5013966;28;51227;-55
2021/12/23 02:51:12;;;;;;;;;14.25;14.25;;;;;18.64;36.06;101161.44;5017143;28;51309;-53
2021/12/23 02:53:40;;;;;;;;;20.00;13.50;;;;;18.63;36.00;101154.28;5006527;28;51819;-56
2021/12/23 02:56:08;;;;;;;;;17.00;16.50;;;;;18.62;35.99;101163.56;5011471;28;51399;-56
2021/12/23 02:58:34;;;;;;;;;15.25;13.00;;;;;18.59;35.97;101164.81;4995886;28;51272;-57
2021/12/23 03:01:04;;;;;;;;;21.25;14.50;;;;;18.60;36.06;101162.91;5008279;28;51826;-57
2021/12/23 03:03:29;;;;;;;;;13.50;12.50;;;;;18.58;35.98;101160.38;5015001;28;51061;-56
2021/12/23 03:05:57;;;;;;;;;17.00;13.75;;;;;18.57;36.19;101160.59;5008571;28;51089;-56
2021/12/23 03:08:40;;;;;;;;;16.00;14.00;;;;;18.56;36.08;101156.16;4995436;28;51536;-56
2021/12/23 03:11:07;;;;;;;;;18.50;13.00;;;;;18.56;36.38;101156.16;5012540;28;51212;-55
2021/12/23 03:13:33;;;;;;;;;18.50;14.00;;;;;18.54;35.98;101150.84;5002939;28;52352;-57
2021/12/23 03:15:59;;;;;;;;;17.50;15.00;;;;;18.55;35.95;101151.69;5010347;28;50899;-55
2021/12/23 03:18:25;;;;;;;;;15.50;13.50;;;;;18.53;36.20;101138.19;5000231;28;51119;-56
2021/12/23 03:20:51;;;;;;;;;21.50;16.25;;;;;18.52;36.26;101136.47;5014662;28;51132;-55
2021/12/23 03:23:17;;;;;;;;;17.75;13.75;;;;;18.50;36.19;101141.34;5015015;28;52043;-57
2021/12/23 03:25:43;;;;;;;;;20.25;12.50;;;;;18.50;36.16;101133.09;5012794;28;51230;-56
2021/12/23 03:28:08;;;;;;;;;15.75;14.00;;;;;18.49;36.23;101134.16;5010484;28;51214;-57
2021/12/23 03:30:34;;;;;;;;;24.25;18.50;;;;;18.48;36.44;101135.22;5012330;28;51306;-57
2021/12/23 03:33:00;;;;;;;;;18.00;12.25;;;;;18.47;36.28;101125.28;4995461;28;51864;-57
2021/12/23 03:35:25;;;;;;;;;16.25;15.00;;;;;18.46;36.13;101132.66;5001557;28;51150;-56
2021/12/23 03:37:51;;;;;;;;;16.75;15.75;;;;;18.46;36.17;101126.34;5006572;28;51025;-56
2021/12/23 03:40:16;;;;;;;;;14.75;13.50;;;;;18.45;36.32;101122.75;5013261;28;52200;-57
2021/12/23 03:42:41;;;;;;;;;15.75;14.25;;;;;18.44;36.18;101123.81;4995518;28;51088;-56
2021/12/23 03:45:08;;;;;;;;;12.50;12.50;;;;;18.44;36.19;101117.44;4995721;28;51181;-55
2021/12/23 03:47:35;;;;;;;;;14.75;13.00;;;;;18.43;36.32;101104.78;5001083;28;51026;-56
2021/12/23 03:50:00;;;;;;;;;17.00;13.50;;;;;18.42;36.31;101106.69;5003715;28;51045;-56
2021/12/23 03:52:26;;;;;;;;;20.00;14.25;;;;;18.41;36.50;101102.25;5013765;28;51062;-56
2021/12/23 03:54:51;;;;;;;;;13.75;12.75;;;;;18.40;36.39;101100.56;5014889;28;50891;-56
2021/12/23 03:57:16;;;;;;;;;16.00;13.75;;;;;18.41;36.46;101104.13;4997223;28;51510;-56
2021/12/23 03:59:42;;;;;;;;;13.75;13.25;;;;;18.39;36.31;101098.84;4996324;28;50918;-56
2021/12/23 04:02:07;;;;;;;;;15.50;12.25;;;;;18.39;36.38;101098.00;4999909;28;51724;-56
2021/12/23 04:04:33;;;;;;;;;17.25;15.00;;;;;18.37;36.19;101100.97;5013750;28;51110;-55
2021/12/23 04:06:58;;;;;;;;;18.25;14.75;;;;;18.37;36.18;101095.47;5011602;28;51121;-55
2021/12/23 04:09:24;;;;;;;;;15.75;13.75;;;;;18.36;36.26;101079.22;4995285;28;52275;-56
2021/12/23 04:11:49;;;;;;;;;20.50;18.75;;;;;18.35;36.44;101089.34;5011891;28;51806;-55
2021/12/23 04:14:15;;;;;;;;;17.00;14.75;;;;;18.35;36.34;101083.88;5017847;28;51169;-56
2021/12/23 04:16:40;;;;;;;;;17.00;15.00;;;;;18.33;36.32;101083.19;5015922;28;51169;-57
2021/12/23 04:19:08;;;;;;;;;19.00;15.00;;;;;18.33;36.24;101068.66;5012988;28;51061;-55
2021/12/23 04:21:35;;;;;;;;;16.50;12.75;;;;;18.32;36.32;101073.28;4998201;28;52803;-55
2021/12/23 04:24:00;;;;;;;;;19.00;14.75;;;;;18.31;36.36;101063.38;5007381;28;51190;-56
2021/12/23 04:26:26;;;;;;;;;17.00;15.25;;;;;18.31;36.26;101065.25;5022208;28;51092;-56
2021/12/23 04:28:52;;;;;;;;;16.00;15.25;;;;;18.30;36.44;101061.69;5016656;28;51417;-55
2021/12/23 04:31:20;;;;;;;;;14.50;14.50;;;;;18.29;36.50;101062.72;4998613;28;51993;-56
2021/12/23 04:33:48;;;;;;;;;12.00;12.00;;;;;18.29;36.30;101061.88;4998589;28;51530;-54
2021/12/23 04:36:14;;;;;;;;;17.75;14.50;;;;;18.28;36.37;101061.03;5003247;28;51085;-55
2021/12/23 04:38:41;;;;;;;;;18.25;14.25;;;;;18.27;36.37;101050.28;5010774;28;50975;-56
2021/12/23 04:41:07;;;;;;;;;17.00;14.25;;;;;18.27;36.23;101061.25;5008488;28;51002;-56
2021/12/23 04:43:32;;;;;;;;;14.25;14.25;;;;;18.26;36.26;101048.59;5017187;28;51556;-54
2021/12/23 04:45:57;;;;;;;;;26.00;19.75;;;;;18.26;36.52;101049.44;5009626;28;51381;-53
2021/12/23 04:48:23;;;;;;;;;15.50;15.50;;;;;18.25;36.61;101047.75;5012389;28;51109;-55
2021/12/23 04:50:48;;;;;;;;;15.50;14.25;;;;;18.25;36.46;101058.72;5014524;28;52332;-55
2021/12/23 04:53:14;;;;;;;;;17.50;16.75;;;;;18.23;36.22;101052.56;5001939;28;51157;-55
2021/12/23 04:55:39;;;;;;;;;16.50;15.00;;;;;18.22;36.43;101039.91;4998279;28;51177;-56
2021/12/23 04:58:04;;;;;;;;;17.00;15.25;;;;;18.22;36.53;101039.91;4998245;28;51030;-56
2021/12/23 05:00:30;;;;;;;;;20.75;15.00;;;;;18.22;36.43;101045.38;4997805;28;51790;-56
2021/12/23 05:02:55;;;;;;;;;17.75;15.25;;;;;18.21;36.41;101042.84;4997934;28;51162;-54
2021/12/23 05:05:20;;;;;;;;;18.00;13.00;;;;;18.19;36.48;101043.06;4999045;28;51023;-55
2021/12/23 05:07:48;;;;;;;;;14.75;12.50;;;;;18.19;36.48;101037.56;5017463;28;51207;-56
2021/12/23 05:10:14;;;;;;;;;16.25;15.00;;;;;18.19;36.15;101043.06;5008572;28;51597;-57
2021/12/23 05:12:44;;;;;;;;;13.75;13.75;;;;;18.18;36.58;101042.22;4998507;28;51561;-56
2021/12/23 05:15:15;;;;;;;;;18.00;15.75;;;;;18.18;36.42;101044.09;4998146;28;51225;-54
2021/12/23 05:17:41;;;;;;;;;22.50;15.25;;;;;18.16;36.27;101041.56;5001360;28;51259;-56
2021/12/23 05:20:09;;;;;;;;;19.50;13.50;;;;;18.16;36.52;101032.50;5017173;28;51895;-55
2021/12/23 05:22:35;;;;;;;;;17.50;15.75;;;;;18.15;36.60;101028.06;5015619;28;51271;-55
2021/12/23 05:25:00;;;;;;;;;14.25;14.25;;;;;18.14;36.63;101021.75;5012611;28;51168;-57
2021/12/23 05:27:26;;;;;;;;;16.50;15.50;;;;;18.13;36.68;101016.44;5006353;28;51047;-56
2021/12/23 05:29:51;;;;;;;;;20.75;17.00;;;;;18.13;36.48;101010.94;4998492;28;51216;-55
2021/12/23 05:32:16;;;;;;;;;15.75;14.25;;;;;18.12;36.61;101004.63;5017551;28;51072;-56
2021/12/23 05:34:42;;;;;;;;;18.00;16.25;;;;;18.11;36.25;101005.66;5010536;28;51248;-54
2021/12/23 05:37:07;;;;;;;;;20.00;15.75;;;;;18.12;36.40;101003.78;5001695;28;51153;-56
2021/12/23 05:39:32;;;;;;;;;15.00;13.00;;;;;18.04;36.63;100990.25;5000899;28;51707;-56
2021/12/23 05:41:58;;;;;;;;;19.25;16.50;;;;;18.10;36.20;101000.41;5008903;28;50985;-55
2021/12/23 05:44:23;;;;;;;;;16.00;15.25;;;;;18.09;36.37;101002.28;5012910;28;51358;-57
2021/12/23 05:46:48;;;;;;;;;21.50;16.25;;;;;18.09;36.39;101002.28;5000195;28;51322;-54
2021/12/23 05:49:14;;;;;;;;;14.25;12.50;;;;;18.08;36.56;100997.03;5012746;28;51375;-55
2021/12/23 05:51:40;;;;;;;;;13.00;11.50;;;;;18.06;36.52;100994.47;5013135;28;51113;-56
2021/12/23 05:54:05;;;;;;;;;14.75;14.25;;;;;18.07;36.47;100995.31;5003010;28;51166;-55
2021/12/23 05:56:31;;;;;;;;;16.25;15.25;;;;;18.05;36.65;100987.31;5020486;28;51053;-56
2021/12/23 05:58:56;;;;;;;;;3.00;3.00;;;;;18.05;36.40;100992.78;4999283;28;52713;-55
2021/12/23 06:01:22;;;;;;;;;19.25;16.25;;;;;18.05;36.48;100995.53;5001616;28;51057;-55
2021/12/23 06:03:47;;;;;;;;;19.00;16.75;;;;;18.05;36.50;101002.91;4999455;28;51602;-55
2021/12/23 06:06:16;;;;;;;;;19.00;16.75;;;;;18.04;36.49;101001.22;5010923;28;51326;-56
2021/12/23 06:08:42;;;;;;;;;19.75;16.75;;;;;18.03;36.37;100994.91;5018083;28;52044;-54
2021/12/23 06:11:08;;;;;;;;;16.25;14.50;;;;;18.02;36.37;100987.69;5015888;28;51013;-55
2021/12/23 06:13:33;;;;;;;;;17.75;15.75;;;;;18.01;36.36;100991.50;5000975;28;51082;-56
2021/12/23 06:15:59;;;;;;;;;16.00;15.00;;;;;18.02;36.62;100993.19;5004901;28;51212;-54
2021/12/23 06:18:24;;;;;;;;;14.75;14.75;;;;;18.01;36.67;100994.22;5001262;28;51104;-55
2021/12/23 06:20:49;;;;;;;;;18.75;16.25;;;;;18.02;36.34;101000.56;5000255;28;51229;-55
2021/12/23 06:23:15;;;;;;;;;18.75;16.50;;;;;18.00;36.35;100991.69;4996702;28;51156;-56
2021/12/23 06:25:41;;;;;;;;;16.75;13.00;;;;;18.01;36.75;100993.38;5013002;28;50986;-56
2021/12/23 06:28:06;;;;;;;;;17.75;14.75;;;;;18.01;36.46;100996.13;5002604;28;51769;-56
2021/12/23 06:30:32;;;;;;;;;20.00;16.75;;;;;18.00;36.60;100994.44;5004465;28;51105;-55
2021/12/23 06:32:57;;;;;;;;;21.25;16.50;;;;;18.00;37.05;100999.91;5004290;28;51078;-55
2021/12/23 06:35:26;;;;;;;;;15.25;14.25;;;;;17.99;36.68;101000.97;5001148;28;51095;-55
2021/12/23 06:37:52;;;;;;;;;18.75;17.25;;;;;17.99;36.46;101006.44;4996351;28;52204;-57
2021/12/23 06:40:18;;;;;;;;;18.25;17.00;;;;;17.97;36.38;101012.13;4997568;28;51220;-55
2021/12/23 06:42:44;;;;;;;;;15.75;15.00;;;;;17.97;36.69;101008.56;5005426;28;51239;-55
2021/12/23 06:45:10;;;;;;;;;17.75;17.75;;;;;17.97;36.86;101014.03;5014816;28;51147;-55
2021/12/23 06:47:36;;;;;;;;;18.25;15.00;;;;;17.96;36.31;101015.09;5004193;28;51109;-57
2021/12/23 06:50:02;;;;;;;;;21.25;17.25;;;;;17.95;36.58;101000.53;5011807;28;51108;-56
2021/12/23 06:52:27;;;;;;;;;19.50;18.75;;;;;17.95;36.95;101003.28;5024245;28;51219;-56
2021/12/23 06:54:55;;;;;;;;;18.00;18.00;;;;;17.94;36.41;101007.06;5007331;28;51331;-55
2021/12/23 06:57:21;;;;;;;;;19.50;17.00;;;;;17.93;36.60;100999.06;4996626;28;52822;-55
2021/12/23 06:59:47;;;;;;;;;17.25;16.75;;;;;17.92;36.60;100995.44;5013932;28;51178;-56
2021/12/23 07:02:12;;;;;;;;;21.00;20.00;;;;;17.92;36.60;101000.91;5003310;28;51078;-55
2021/12/23 07:04:40;;;;;;;;;20.75;18.00;;;;;17.92;36.67;101006.41;4996226;28;51182;-55
2021/12/23 07:07:10;;;;;;;;;18.00;17.00;;;;;17.91;36.45;101006.59;4997185;28;51949;-55
2021/12/23 07:09:38;;;;;;;;;16.50;14.00;;;;;17.92;36.44;101013.78;4998222;28;51237;-55
2021/12/23 07:12:04;;;;;;;;;17.00;15.25;;;;;17.91;36.76;101009.34;5005995;28;51154;-56
2021/12/23 07:14:29;;;;;;;;;19.00;17.25;;;;;17.89;36.43;101004.91;4996205;28;50981;-54
2021/12/23 07:16:55;;;;;;;;;19.50;18.75;;;;;17.89;36.69;101004.06;5006227;28;51035;-56
2021/12/23 07:19:20;;;;;;;;;23.00;19.00;;;;;17.88;36.50;101005.97;5008465;28;51272;-54
2021/12/23 07:21:45;;;;;;;;;18.00;15.00;;;;;17.88;36.52;101008.72;4998601;28;51123;-57
2021/12/23 07:24:10;;;;;;;;;21.00;18.00;;;;;17.87;36.47;101020.72;5012107;28;51214;-56
2021/12/23 07:26:36;;;;;;;;;23.50;18.00;;;;;17.86;36.55;101009.97;5016240;28;51064;-57
2021/12/23 07:29:02;;;;;;;;;20.25;18.00;;;;;17.85;36.72;101013.75;5004386;28;51017;-55
2021/12/23 07:31:29;;;;;;;;;18.00;14.25;;;;;17.84;36.61;101021.13;4995651;28;51133;-57
2021/12/23 07:33:54;;;;;;;;;19.75;19.00;;;;;17.84;36.55;101023.03;4999569;28;51140;-58
2021/12/23 07:36:22;;;;;;;;;20.50;17.50;;;;;17.84;36.49;101029.34;5009767;28;51717;-56
2021/12/23 07:38:48;;;;;;;;;23.75;19.25;;;;;17.84;36.42;101032.09;4999075;28;51042;-56
2021/12/23 07:41:13;;;;;;;;;20.25;17.25;;;;;17.82;36.74;101027.84;5005241;28;51040;-57
2021/12/23 07:46:04;;;;;;;;;35.50;30.25;;;;;17.78;35.53;101032.03;5015294;28;51737;-56
2021/12/23 07:48:33;;;;;;;;;35.25;28.00;;;;;17.71;35.01;101026.50;5018894;28;51528;-56
2021/12/23 07:51:01;;;;;;;;;30.00;24.50;;;;;17.70;36.19;101030.28;5012542;28;51222;-57
2021/12/23 07:53:27;;;;;;;;;22.75;22.25;;;;;17.74;35.95;101030.75;5019302;28;51125;-57
2021/12/23 07:55:52;;;;;;;;;30.00;24.50;;;;;17.78;36.20;101030.13;5011042;28;51126;-56
2021/12/23 07:58:18;;;;;;;;;25.75;23.25;;;;;17.84;36.36;101029.34;5028735;28;51142;-55
2021/12/23 08:00:43;;;;;;;;;27.25;24.00;;;;;17.91;36.18;101017.56;5014196;28;51096;-57
2021/12/23 08:03:09;;;;;;;;;23.50;19.25;;;;;17.96;36.63;101018.66;5012065;28;51505;-54
2021/12/23 08:05:34;;;;;;;;;23.25;22.75;;;;;18.03;36.73;101022.31;5015488;28;51093;-56
2021/12/23 08:08:00;;;;;;;;;21.00;20.75;;;;;18.12;36.72;101020.22;5007275;28;51208;-55
2021/12/23 08:10:26;;;;;;;;;24.00;21.75;;;;;18.18;36.93;101013.94;5015614;28;51135;-57
2021/12/23 08:12:51;;;;;;;;;20.00;19.25;;;;;18.25;37.02;101025.81;5024052;28;51074;-54
2021/12/23 08:15:17;;;;;;;;;24.75;18.50;;;;;18.33;36.99;101017.38;5021276;28;51607;-56
2021/12/23 08:17:42;;;;;;;;;23.75;20.50;;;;;18.39;36.80;101022.06;5006554;28;50939;-55
2021/12/23 08:20:09;;;;;;;;;21.00;18.00;;;;;18.47;37.02;101012.81;5013703;28;51340;-55
2021/12/23 08:22:34;;;;;;;;;20.25;18.75;;;;;18.56;37.21;101018.97;5011013;28;51143;-54
2021/12/23 08:25:00;;;;;;;;;23.75;20.50;;;;;18.63;37.06;101017.09;5011187;28;51041;-55
2021/12/23 08:27:28;;;;;;;;;16.00;15.00;;;;;18.70;37.03;101015.25;5015222;28;51116;-54
2021/12/23 08:29:53;;;;;;;;;15.00;14.00;;;;;18.77;36.96;101016.13;5008646;28;51143;-54
2021/12/23 08:32:20;;;;;;;;;16.00;14.50;;;;;18.83;37.03;101015.28;5017906;28;51234;-55
2021/12/23 08:34:45;;;;;;;;;20.75;17.75;;;;;18.90;36.81;101007.06;5014478;28;51920;-55
2021/12/23 08:37:12;;;;;;;;;22.50;19.00;;;;;18.96;36.87;101011.72;5010914;28;50973;-53
2021/12/23 08:39:41;;;;;;;;;24.00;18.00;;;;;19.01;37.09;101007.31;5004077;28;52272;-56
2021/12/23 08:42:08;;;;;;;;;17.50;16.75;;;;;19.07;36.74;101007.50;5004808;28;51184;-53
2021/12/23 08:44:34;;;;;;;;;22.25;18.00;;;;;19.13;36.70;101009.44;5005055;28;51338;-53
2021/12/23 08:47:00;;;;;;;;;20.50;17.00;;;;;19.18;36.50;101016.00;5020508;28;51114;-54
2021/12/23 08:49:25;;;;;;;;;22.00;18.50;;;;;19.24;36.67;101001.41;5022587;28;51146;-57
2021/12/23 08:51:51;;;;;;;;;19.00;14.75;;;;;19.29;36.97;101001.63;5011328;28;51186;-53
2021/12/23 08:54:16;;;;;;;;;17.00;16.00;;;;;19.35;36.74;101001.84;5010828;28;52707;-54
2021/12/23 08:56:42;;;;;;;;;17.25;14.50;;;;;19.40;36.80;101002.91;5003658;28;51195;-57
2021/12/23 08:59:07;;;;;;;;;16.00;13.75;;;;;19.43;36.45;101002.47;5020182;28;51227;-53
2021/12/23 09:01:33;;;;;;;;;18.00;16.00;;;;;19.50;36.57;101007.97;5022722;28;51159;-60
2021/12/23 09:03:58;;;;;;;;;21.00;16.00;;;;;19.55;36.65;101005.44;5014027;28;51971;-53
2021/12/23 09:06:24;;;;;;;;;20.50;15.25;;;;;19.58;36.58;101000.38;5017881;28;51494;-54
2021/12/23 09:08:49;;;;;;;;;18.25;13.00;;;;;19.60;36.63;101009.28;5014965;28;51191;-54
2021/12/23 09:11:15;;;;;;;;;17.00;15.00;;;;;19.62;36.80;100999.97;5007070;28;51344;-55
2021/12/23 09:13:40;;;;;;;;;22.00;17.25;;;;;19.63;36.38;101008.00;5016921;28;51037;-53
2021/12/23 09:16:06;;;;;;;;;14.25;12.75;;;;;19.65;36.39;101013.28;5011583;28;50962;-54
2021/12/23 09:18:33;;;;;;;;;15.00;15.00;;;;;19.67;36.37;101013.91;5023323;28;51101;-54
2021/12/23 09:20:59;;;;;;;;;15.25;15.00;;;;;19.70;36.69;101019.00;5016225;28;51064;-53
2021/12/23 09:23:25;;;;;;;;;19.50;15.00;;;;;19.73;36.52;101021.31;5020010;28;51970;-56
2021/12/23 09:25:51;;;;;;;;;18.00;16.00;;;;;19.76;36.81;101007.97;5001828;28;51381;-56
2021/12/23 09:33:37;;;;;;;;;23.50;16.50;;;;;19.86;36.67;101002.03;5011542;28;51597;-55
2021/12/23 09:36:03;;;;;;;;;20.75;18.50;;;;;19.92;36.57;101005.84;5013739;28;51086;-54
2021/12/23 09:38:29;;;;;;;;;16.50;16.00;;;;;19.96;36.34;101004.34;5011686;28;51189;-54
2021/12/23 09:40:59;;;;;;;;;18.25;16.00;;;;;19.99;36.24;101010.25;5017189;28;51283;-53
2021/12/23 09:43:27;;;;;;;;;19.50;13.75;;;;;20.04;36.01;101007.72;5010255;28;51929;-51
2021/12/23 09:45:53;;;;;;;;;17.00;14.25;;;;;20.07;36.37;100999.03;5007988;28;51184;-53
2021/12/23 09:48:21;;;;;;;;;16.00;15.75;;;;;20.10;36.27;101000.50;5008188;28;51403;-55
2021/12/23 09:50:49;;;;;;;;;19.25;16.50;;;;;20.15;36.51;100989.72;5015050;28;51081;-58
2021/12/23 09:53:21;;;;;;;;;17.50;16.00;;;;;20.19;36.40;100997.28;5004109;28;51199;-55
2021/12/23 09:55:46;;;;;;;;;16.75;15.25;;;;;20.19;35.85;100993.69;4996850;28;51105;-55
2021/12/23 09:58:12;;;;;;;;;15.50;14.75;;;;;20.19;35.82;100991.78;4995810;28;51144;-54
2021/12/23 10:00:45;;;;;;;;;17.50;14.00;;;;;20.22;35.90;100996.03;4997362;28;51224;-57
2021/12/23 10:03:11;;;;;;;;;19.00;16.25;;;;;20.24;35.82;100988.41;5011256;28;52819;-54
2021/12/23 10:05:37;;;;;;;;;16.00;14.00;;;;;20.29;35.86;100991.34;5011550;28;51544;-54
2021/12/23 10:08:05;;;;;;;;;15.25;14.50;;;;;20.32;35.67;100985.44;5011262;28;51624;-53
2021/12/23 10:11:10;;;;;;;;;17.25;16.00;;;;;20.34;35.98;100977.78;5016428;28;51424;-54
2021/12/23 10:38:13;;;;;;;;;18.75;16.75;;;;;20.45;35.71;100946.03;5009214;28;51135;-55
2021/12/23 10:40:42;;;;;;;;;56.25;46.00;;;;;20.49;35.61;100944.50;5001437;28;51190;-52
2021/12/23 10:43:11;;;;;;;;;50.00;42.50;;;;;20.50;36.04;100943.44;5013741;28;51180;-55
2021/12/23 10:45:53;;;;;;;;;68.50;54.25;;;;;20.52;35.98;100938.56;5003327;28;52372;-53
2021/12/23 10:48:18;;;;;;;;;67.25;54.00;;;;;20.56;36.00;100934.31;5003792;28;51626;-54
2021/12/23 10:50:51;;;;;;;;;93.75;90.50;;;;;20.61;35.78;100925.38;5012747;28;51044;-53
2021/12/23 10:53:48;;;;;;;;;92.25;90.25;;;;;20.64;35.78;100928.56;5011836;28;51190;-53
2021/12/23 10:59:14;;;;;;;;;86.25;84.50;;;;;20.71;36.16;100931.25;5006577;28;51557;-53
2021/12/23 11:02:15;;;;;;;;;76.75;68.50;;;;;20.73;36.30;100926.34;5022979;28;51076;-53
2021/12/23 11:05:23;;;;;;;;;77.75;68.00;;;;;20.76;35.70;100914.94;5002451;28;51140;-53
2021/12/23 11:08:02;;;;;;;;;72.00;60.75;;;;;20.79;36.39;100913.63;5019538;28;51197;-53
2021/12/23 11:36:16;;;;;;;;;27.00;25.75;;;;;20.97;35.56;100886.19;4978950;28;51355;-54
2021/12/23 11:43:54;;;;;;;;;21.25;19.25;;;;;21.00;35.33;100894.81;5025619;28;51244;-52
2021/12/23 11:46:29;;;;;;;;;21.50;19.75;;;;;21.02;35.47;100884.41;5023563;28;51183;-55
2021/12/23 11:48:57;;;;;;;;;21.75;20.00;;;;;21.01;35.54;100896.50;4997066;28;51430;-55
2021/12/23 11:51:47;;;;;;;;;23.50;19.50;;;;;20.98;35.27;100891.44;5001605;28;51881;-53
2021/12/23 11:54:15;;;;;;;;;17.00;16.25;;;;;20.94;35.75;100883.84;5009715;28;52804;-54
2021/12/23 11:56:45;;;;;;;;;22.00;19.00;;;;;20.88;35.34;100874.59;5005313;28;51016;-54
2021/12/23 11:59:14;;;;;;;;;19.75;17.25;;;;;20.82;35.28;100878.22;5001591;28;51189;-54
2021/12/23 12:01:53;;;;;;;;;17.75;17.25;;;;;20.75;35.56;100875.53;4999096;28;52858;-55
2021/12/23 12:04:27;;;;;;;;;19.00;18.50;;;;;20.70;35.42;100866.25;5014347;28;51030;-55
2021/12/23 12:06:54;;;;;;;;;17.50;17.00;;;;;20.64;34.98;100864.41;5011764;28;51036;-56
2021/12/23 12:09:22;;;;;;;;;15.75;15.00;;;;;20.58;35.04;100863.38;5015220;28;50919;-55
2021/12/23 12:12:03;;;;;;;;;16.50;16.25;;;;;20.54;35.38;100867.66;5015186;28;52973;-55
2021/12/23 12:14:40;;;;;;;;;16.75;15.25;;;;;20.47;35.46;100861.34;5010067;28;51302;-54
2021/12/23 12:17:27;;;;;;;;;20.25;17.75;;;;;20.44;35.25;100853.53;5013176;28;51196;-54
2021/12/23 12:20:33;;;;;;;;;13.25;13.00;;;;;20.39;35.70;100848.66;5013187;28;51445;-53
2021/12/23 12:23:05;;;;;;;;;13.50;13.50;;;;;20.36;35.35;100842.75;5013053;28;52257;-55